Time;durP1;ratioP1;P1;durP2;ratioP2;P2;SDS_P1;SDS_P2;PMS_P1;PMS_P2;Temp;Humidity;BMP_temperature;BMP_pressure;BME280_temperature;BME280_humidity;BME280_pressure;Samples;Min_cycle;Max_cycle;Signal;HPM_P1;HPM_P2
2021/12/11 00:02:22;;;;;;;3.55;1.00;;;;;;;1.69;85.57;96018.09;5055345;28;20677;-54
2021/12/11 00:04:55;;;;;;;4.00;1.40;;;;;;;1.62;85.97;96022.75;5046728;28;20045;-55
2021/12/11 00:07:23;;;;;;;2.72;1.27;;;;;;;1.56;85.85;96041.28;5046053;28;20559;-55
2021/12/11 00:09:54;;;;;;;2.80;1.30;;;;;;;1.02;85.54;96052.66;5046184;28;20111;-53
2021/12/11 00:12:23;;;;;;;3.45;1.25;;;;;;;0.79;87.65;96053.31;5045691;28;20052;-49
2021/12/11 00:15:03;;;;;;;2.70;1.45;;;;;;;0.43;88.35;96049.59;5046087;28;20432;-49
2021/12/11 00:17:32;;;;;;;3.15;1.60;;;;;;;0.25;89.56;96059.16;5046026;28;20052;-53
2021/12/11 00:19:59;;;;;;;2.20;1.30;;;;;;;0.24;89.49;96062.88;5045875;28;20049;-51
2021/12/11 00:22:30;;;;;;;3.55;1.35;;;;;;;0.14;90.04;96066.03;5045594;28;20049;-49
2021/12/11 00:25:00;;;;;;;3.13;1.40;;;;;;;0.14;89.58;96065.22;5045819;28;20040;-51
2021/12/11 00:27:29;;;;;;;3.53;1.15;;;;;;;0.15;88.67;96075.66;5044998;28;20041;-50
2021/12/11 00:29:56;;;;;;;2.92;1.40;;;;;;;-0.10;89.93;96083.63;5046672;28;20048;-50
2021/12/11 00:32:29;;;;;;;2.47;1.20;;;;;;;-0.15;90.19;96089.56;5046074;28;20119;-51
2021/12/11 00:35:04;;;;;;;2.15;1.30;;;;;;;-0.23;90.43;96087.19;5045472;28;20045;-50
2021/12/11 00:37:32;;;;;;;2.42;1.30;;;;;;;-0.23;90.75;96093.31;5054581;28;20052;-56
2021/12/11 00:40:07;;;;;;;2.53;1.23;;;;;;;-0.26;90.70;96101.72;5045961;28;20163;-54
2021/12/11 00:42:34;;;;;;;3.67;1.55;;;;;;;-0.31;90.48;96104.22;5048709;28;20079;-56
2021/12/11 00:45:17;;;;;;;1.67;1.08;;;;;;;-0.26;91.49;96112.34;5046445;28;20045;-54
2021/12/11 00:47:52;;;;;;;1.88;0.85;;;;;;;-0.27;90.62;96111.56;5035975;28;20400;-53
2021/12/11 00:50:25;;;;;;;2.38;1.10;;;;;;;-0.26;90.50;96130.97;5045737;28;20107;-52
2021/12/11 00:52:55;;;;;;;1.25;0.80;;;;;;;-0.30;91.04;96127.94;5045333;28;20041;-52
2021/12/11 00:55:28;;;;;;;1.33;0.90;;;;;;;-0.21;91.59;96122.38;5044608;28;20119;-54
2021/12/11 00:58:15;;;;;;;1.85;1.02;;;;;;;-0.18;90.57;96133.38;5045010;28;20041;-49
2021/12/11 01:00:42;;;;;;;1.63;0.80;;;;;;;-0.24;90.18;96141.41;5043449;28;20099;-51
2021/12/11 01:03:10;;;;;;;1.42;0.80;;;;;;;-0.24;91.13;96146.72;5047286;28;20706;-49
2021/12/11 01:05:42;;;;;;;2.35;0.95;;;;;;;-0.28;90.89;96151.66;5045168;28;20045;-49
2021/12/11 01:08:15;;;;;;;1.83;1.00;;;;;;;-0.28;90.84;96159.66;5045700;28;20041;-50
2021/12/11 01:10:42;;;;;;;1.55;0.73;;;;;;;-0.12;90.10;96161.00;5044487;28;20504;-53
2021/12/11 01:13:11;;;;;;;0.57;0.50;;;;;;;-0.11;89.67;96167.13;5045584;28;20114;-56
2021/12/11 01:15:46;;;;;;;1.95;0.90;;;;;;;-0.18;90.57;96164.53;5045304;28;20127;-56
2021/12/11 01:21:01;;;;;;;1.40;0.68;;;;;;;-0.18;90.32;96183.13;5045115;28;20041;-55
2021/12/11 01:26:12;;;;;;;2.05;1.00;;;;;;;-0.26;90.54;96184.19;5046397;28;20131;-54
2021/12/11 01:28:39;;;;;;;1.05;0.70;;;;;;;-0.14;90.36;96195.78;5049558;28;20051;-56
2021/12/11 01:31:10;;;;;;;2.65;0.80;;;;;;;-0.24;90.53;96202.59;5048409;28;20467;-55
2021/12/11 01:33:37;;;;;;;1.45;0.80;;;;;;;-0.23;90.62;96209.56;5046369;28;20102;-55
2021/12/11 01:36:05;;;;;;;2.83;0.77;;;;;;;-0.24;91.09;96215.91;5051442;28;20048;-54
2021/12/11 01:38:33;;;;;;;1.80;0.88;;;;;;;-0.19;91.17;96219.56;5048246;28;20122;-53
2021/12/11 01:41:07;;;;;;;1.60;0.80;;;;;;;-0.15;90.49;96230.59;5049109;28;20484;-56
2021/12/11 01:43:36;;;;;;;2.38;0.90;;;;;;;-0.19;90.18;96234.72;5051294;28;20538;-55
2021/12/11 01:46:05;;;;;;;1.15;0.70;;;;;;;-0.18;90.69;96234.50;5055011;28;20053;-55
2021/12/11 01:48:36;;;;;;;1.08;0.88;;;;;;;-0.20;90.52;96243.72;5048466;28;20041;-53
2021/12/11 01:51:18;;;;;;;1.63;0.98;;;;;;;-0.12;90.72;96253.31;5039396;28;20128;-50
2021/12/11 01:53:56;;;;;;;2.55;0.90;;;;;;;-0.15;89.81;96259.84;5048859;28;20107;-51
2021/12/11 01:56:26;;;;;;;1.75;1.00;;;;;;;-0.22;90.37;96259.88;5058513;28;20063;-52
2021/12/11 01:59:07;;;;;;;1.77;0.77;;;;;;;-0.23;90.36;96263.59;5050310;28;20048;-52
2021/12/11 02:01:44;;;;;;;1.80;0.82;;;;;;;-0.22;90.38;96269.72;5045048;28;20044;-51
2021/12/11 02:04:13;;;;;;;1.52;0.95;;;;;;;-0.30;90.44;96279.56;5047446;28;20037;-51
2021/12/11 02:06:42;;;;;;;2.00;0.80;;;;;;;-0.25;91.48;96283.44;5046937;28;20052;-52
2021/12/11 02:09:19;;;;;;;1.60;0.90;;;;;;;-0.34;90.61;96296.97;5046109;28;20049;-49
2021/12/11 02:11:49;;;;;;;1.60;0.80;;;;;;;-0.37;91.82;96297.38;5048150;28;20036;-51
2021/12/11 02:14:24;;;;;;;1.05;0.75;;;;;;;-0.32;91.24;96294.09;5043516;28;20037;-50
2021/12/11 02:16:52;;;;;;;1.20;0.70;;;;;;;-0.26;91.36;96303.91;5047357;28;20040;-56
2021/12/11 02:19:30;;;;;;;1.02;0.68;;;;;;;-0.21;90.47;96309.44;5048267;28;20095;-56
2021/12/11 02:21:59;;;;;;;1.58;0.80;;;;;;;-0.27;91.63;96307.59;5048141;28;20107;-55
2021/12/11 02:24:34;;;;;;;1.50;0.98;;;;;;;-0.16;91.96;96319.44;5046952;28;20044;-55
2021/12/11 02:27:07;;;;;;;2.33;1.20;;;;;;;-0.20;90.89;96324.38;5043986;28;20056;-53
2021/12/11 02:29:40;;;;;;;1.65;1.02;;;;;;;-0.22;90.91;96331.72;5050618;28;20085;-55
2021/12/11 02:32:19;;;;;;;2.20;1.10;;;;;;;-0.32;90.78;96336.66;5042002;28;20045;-55
2021/12/11 02:34:51;;;;;;;2.92;1.65;;;;;;;-0.27;91.09;96340.34;5045521;28;20064;-56
2021/12/11 02:37:50;;;;;;;2.42;1.33;;;;;;;-0.43;90.58;96356.75;5052485;28;20063;-54
2021/12/11 02:40:25;;;;;;;2.42;1.30;;;;;;;-0.42;91.27;96359.19;5046281;28;20071;-56
2021/12/11 02:42:54;;;;;;;1.48;0.77;;;;;;;-0.34;90.62;96368.78;5049465;28;20048;-55
2021/12/11 02:45:28;;;;;;;2.55;1.10;;;;;;;-0.36;90.61;96365.53;5052063;28;20057;-55
2021/12/11 02:48:00;;;;;;;2.45;1.02;;;;;;;-0.33;91.43;96372.28;5052199;28;20107;-51
2021/12/11 02:50:41;;;;;;;2.28;1.30;;;;;;;-0.41;91.14;96370.63;5047567;28;20083;-55
2021/12/11 02:53:19;;;;;;;2.13;1.20;;;;;;;-0.27;90.62;96376.75;5036960;28;20049;-54
2021/12/11 02:55:58;;;;;;;1.83;1.10;;;;;;;-0.34;90.93;96375.97;5047737;28;20044;-54
2021/12/11 02:58:33;;;;;;;2.25;1.25;;;;;;;-0.35;90.79;96379.63;5047904;28;20656;-56
2021/12/11 03:01:05;;;;;;;1.98;1.20;;;;;;;-0.37;90.30;96379.84;5034831;28;20045;-55
2021/12/11 03:03:41;;;;;;;3.65;1.73;;;;;;;-0.43;91.09;96392.16;5056157;28;20068;-56
2021/12/11 03:06:17;;;;;;;2.33;1.25;;;;;;;-0.36;91.15;96388.66;5047413;28;20045;-55
2021/12/11 03:08:45;;;;;;;4.93;1.75;;;;;;;-0.38;90.64;96396.03;5044714;28;20041;-54
2021/12/11 03:11:17;;;;;;;2.83;1.63;;;;;;;-0.24;90.76;96408.28;5047393;28;20044;-55
2021/12/11 03:13:51;;;;;;;2.30;1.20;;;;;;;-0.14;90.05;96413.97;5047782;28;20052;-53
2021/12/11 03:16:21;;;;;;;2.97;1.27;;;;;;;-0.11;90.06;96417.28;5046898;28;20040;-54
2021/12/11 03:18:49;;;;;;;3.22;1.70;;;;;;;-0.25;89.72;96424.44;5046836;28;20069;-55
2021/12/11 03:21:17;;;;;;;2.15;1.20;;;;;;;-0.21;90.59;96426.50;5046724;28;20052;-52
2021/12/11 03:23:44;;;;;;;3.78;1.92;;;;;;;-0.26;90.95;96436.91;5047220;28;20045;-54
2021/12/11 03:26:11;;;;;;;3.42;2.13;;;;;;;-0.27;90.27;96440.59;5047279;28;20048;-56
2021/12/11 03:28:38;;;;;;;3.60;2.28;;;;;;;-0.30;90.44;96444.50;5048235;28;20040;-55
2021/12/11 03:31:07;;;;;;;4.32;2.25;;;;;;;-0.31;90.88;96455.34;5046543;28;20069;-55
2021/12/11 03:33:38;;;;;;;4.50;2.50;;;;;;;-0.34;90.79;96455.78;5056778;28;20045;-56
2021/12/11 03:36:07;;;;;;;4.85;3.17;;;;;;;-0.35;91.17;96464.75;5048997;28;20044;-54
2021/12/11 03:38:35;;;;;;;6.57;3.63;;;;;;;-0.31;90.89;96476.63;5044119;28;20669;-54
2021/12/11 03:41:04;;;;;;;5.03;2.92;;;;;;;-0.30;90.88;96479.09;5044296;28;20044;-54
2021/12/11 03:43:31;;;;;;;4.97;3.45;;;;;;;-0.24;90.92;96480.13;5049366;28;20041;-56
2021/12/11 03:46:03;;;;;;;4.68;3.17;;;;;;;-0.23;90.57;96489.72;5055381;28;20510;-55
2021/12/11 03:48:37;;;;;;;5.22;3.17;;;;;;;-0.23;91.04;96495.03;5048457;28;20041;-53
2021/12/11 03:51:12;;;;;;;4.28;2.25;;;;;;;-0.15;90.64;96494.00;5039967;28;20065;-53
2021/12/11 03:53:40;;;;;;;3.90;2.10;;;;;;;-0.06;89.83;96502.63;5046170;28;20056;-53
2021/12/11 03:56:10;;;;;;;3.90;2.60;;;;;;;-0.15;89.76;96512.63;5045627;28;20037;-55
2021/12/11 03:58:38;;;;;;;4.22;2.38;;;;;;;-0.22;90.88;96517.97;5049493;28;20079;-53
2021/12/11 04:01:13;;;;;;;4.63;2.40;;;;;;;-0.19;90.61;96519.41;5046239;28;20052;-53
2021/12/11 04:03:44;;;;;;;4.03;2.17;;;;;;;-0.20;90.21;96523.91;5036302;28;20099;-53
2021/12/11 04:06:13;;;;;;;4.30;2.30;;;;;;;-0.19;91.03;96528.22;5045898;28;20523;-53
2021/12/11 04:08:41;;;;;;;3.90;2.63;;;;;;;-0.16;90.74;96526.97;5044996;28;20052;-53
2021/12/11 04:11:23;;;;;;;4.60;2.58;;;;;;;-0.11;90.10;96532.50;5046034;28;20099;-52
2021/12/11 04:14:04;;;;;;;4.53;2.70;;;;;;;-0.18;90.55;96542.34;5046193;28;20091;-53
2021/12/11 04:16:31;;;;;;;4.03;2.27;;;;;;;-0.19;91.83;96546.03;5046186;28;20443;-54
2021/12/11 04:18:58;;;;;;;4.25;2.80;;;;;;;-0.26;91.19;96551.31;5045083;28;20074;-54
2021/12/11 04:21:25;;;;;;;5.25;3.13;;;;;;;-0.25;91.13;96552.97;5045071;28;20045;-56
2021/12/11 04:23:52;;;;;;;5.20;3.15;;;;;;;-0.28;90.97;96556.88;5046272;28;20041;-54
2021/12/11 04:26:19;;;;;;;6.10;3.58;;;;;;;-0.13;91.10;96569.16;5045514;28;20076;-56
2021/12/11 04:28:47;;;;;;;6.75;3.80;;;;;;;-0.21;90.90;96574.66;5048626;28;20088;-56
2021/12/11 04:31:24;;;;;;;6.20;3.03;;;;;;;-0.16;91.90;96582.84;5027958;28;20064;-54
2021/12/11 04:33:55;;;;;;;6.18;3.70;;;;;;;-0.08;89.98;96587.19;5036700;28;20041;-54
2021/12/11 04:36:27;;;;;;;6.35;3.80;;;;;;;-0.16;90.25;96586.34;5054770;28;20807;-56
2021/12/11 04:38:56;;;;;;;5.85;3.90;;;;;;;-0.25;91.08;96586.72;5043382;28;20041;-52
2021/12/11 04:41:36;;;;;;;6.07;4.10;;;;;;;-0.26;91.57;96596.53;5044879;28;20083;-55
2021/12/11 04:44:11;;;;;;;5.13;3.28;;;;;;;-0.27;91.01;96605.56;5048773;28;20045;-54
2021/12/11 04:46:37;;;;;;;6.97;4.40;;;;;;;-0.29;91.58;96600.44;5044327;28;20041;-54
2021/12/11 04:49:23;;;;;;;7.78;5.05;;;;;;;-0.34;91.67;96605.53;5045465;28;20488;-53
2021/12/11 04:52:15;;;;;;;6.35;4.20;;;;;;;-0.34;91.35;96610.88;5043066;28;20739;-51
2021/12/11 04:55:17;;;;;;;;;;;;;;;-0.27;91.22;96616.19;5045956;28;20041;-55
2021/12/11 04:57:59;;;;;;;6.88;4.43;;;;;;;-0.27;91.24;96622.34;5033613;28;19947;-55
2021/12/11 05:00:56;;;;;;;6.53;4.55;;;;;;;-0.29;91.55;96628.91;5048118;28;20752;-55
2021/12/11 05:11:16;;;;;;;8.80;5.43;;;;;;;-0.23;91.11;96643.25;5043064;28;20063;-54
2021/12/11 05:13:44;;;;;;;8.60;5.72;;;;;;;-0.29;90.76;96644.84;5045642;28;20048;-54
2021/12/11 05:16:14;;;;;;;6.78;4.50;;;;;;;-0.28;91.49;96655.31;5045482;28;20044;-52
2021/12/11 05:18:44;;;;;;;7.85;4.95;;;;;;;-0.25;91.70;96658.56;5047438;28;20487;-53
2021/12/11 05:21:16;;;;;;;6.68;4.35;;;;;;;-0.19;90.81;96669.22;5045007;28;20495;-51
2021/12/11 05:23:44;;;;;;;9.30;5.65;;;;;;;-0.27;91.18;96669.41;5045118;28;20705;-54
2021/12/11 05:26:11;;;;;;;9.45;5.82;;;;;;;-0.21;91.08;96673.13;5044024;28;20033;-52
2021/12/11 05:28:38;;;;;;;8.20;5.20;;;;;;;-0.25;91.31;96682.53;5045122;28;20639;-51
2021/12/11 05:31:07;;;;;;;8.88;5.03;;;;;;;-0.26;91.42;96687.00;5043592;28;20056;-52
2021/12/11 05:33:35;;;;;;;7.30;4.80;;;;;;;-0.21;91.01;96694.41;5055947;28;20048;-56
2021/12/11 05:36:06;;;;;;;10.63;6.40;;;;;;;-0.21;91.06;96707.72;5043974;28;20566;-56
2021/12/11 05:38:35;;;;;;;8.45;5.65;;;;;;;-0.19;91.06;96714.47;5044914;28;20045;-56
2021/12/11 05:41:08;;;;;;;10.77;6.10;;;;;;;-0.17;91.44;96716.94;5041119;28;20127;-56
2021/12/11 05:43:35;;;;;;;8.85;6.05;;;;;;;-0.22;91.33;96712.19;5047385;28;20041;-54
2021/12/11 05:46:03;;;;;;;9.32;5.60;;;;;;;-0.16;91.31;96730.03;5047699;28;20609;-52
2021/12/11 05:48:30;;;;;;;9.32;5.20;;;;;;;-0.19;91.18;96730.44;5045342;28;20412;-54
2021/12/11 05:51:01;;;;;;;11.70;5.30;;;;;;;-0.14;91.38;96743.16;5044767;28;20037;-50
2021/12/11 05:53:31;;;;;;;9.50;6.00;;;;;;;-0.16;90.84;96743.34;5045147;28;20629;-56
2021/12/11 05:56:00;;;;;;;8.82;5.45;;;;;;;-0.11;90.79;96752.56;5044244;28;20037;-55
2021/12/11 05:58:46;;;;;;;9.48;6.20;;;;;;;-0.22;91.32;96754.78;5043160;28;20036;-56
2021/12/11 06:01:20;;;;;;;8.90;5.63;;;;;;;-0.12;90.93;96764.25;5042917;28;20052;-56
2021/12/11 06:03:47;;;;;;;9.95;6.13;;;;;;;-0.17;90.50;96765.66;5044422;28;20040;-55
2021/12/11 06:06:14;;;;;;;10.20;5.80;;;;;;;-0.09;90.75;96777.97;5043969;28;20041;-54
2021/12/11 06:08:42;;;;;;;9.20;6.00;;;;;;;-0.05;90.32;96776.56;5043728;28;20049;-54
2021/12/11 06:11:13;;;;;;;9.10;6.00;;;;;;;-0.06;90.78;96790.88;5047091;28;20049;-54
2021/12/11 06:13:40;;;;;;;8.15;5.93;;;;;;;-0.06;89.93;96793.56;5048426;28;20570;-55
2021/12/11 06:16:08;;;;;;;8.60;4.97;;;;;;;0.03;90.48;96801.38;5047636;28;20501;-54
2021/12/11 06:18:35;;;;;;;9.07;5.53;;;;;;;0.01;91.07;96801.56;5048180;28;20051;-59
2021/12/11 06:21:02;;;;;;;9.90;6.85;;;;;;;0.00;92.04;96805.25;5047488;28;20040;-59
2021/12/11 06:23:29;;;;;;;11.10;7.03;;;;;;;-0.02;90.78;96808.09;5048082;28;20060;-59
2021/12/11 06:25:57;;;;;;;9.27;6.32;;;;;;;-0.06;90.52;96808.69;5047801;28;20083;-58
2021/12/11 06:28:25;;;;;;;8.98;5.47;;;;;;;-0.04;90.52;96818.13;5049964;28;20037;-57
2021/12/11 06:30:57;;;;;;;10.43;7.18;;;;;;;-0.04;89.98;96814.66;5047059;28;20048;-59
2021/12/11 06:33:27;;;;;;;11.23;6.70;;;;;;;-0.10;90.83;96826.06;5049269;28;20040;-58
2021/12/11 06:36:02;;;;;;;11.45;6.38;;;;;;;0.06;90.65;96840.88;5045281;28;20091;-59
2021/12/11 06:38:32;;;;;;;9.93;6.25;;;;;;;-0.07;91.20;96837.13;5047748;28;20045;-58
2021/12/11 06:41:00;;;;;;;11.13;5.97;;;;;;;-0.08;90.61;96848.00;5039521;28;20451;-58
2021/12/11 06:43:27;;;;;;;9.93;5.47;;;;;;;-0.06;90.14;96848.63;5050417;28;20045;-59
2021/12/11 06:45:54;;;;;;;9.82;6.88;;;;;;;-0.07;90.02;96857.63;5052900;28;20036;-59
2021/12/11 06:48:22;;;;;;;10.00;5.45;;;;;;;-0.03;90.50;96856.22;5047155;28;20048;-58
2021/12/11 06:50:50;;;;;;;9.70;5.15;;;;;;;-0.02;90.48;96857.84;5047289;28;20045;-58
2021/12/11 06:53:34;;;;;;;9.68;5.75;;;;;;;0.05;89.26;96866.69;5047637;28;20045;-58
2021/12/11 06:56:02;;;;;;;8.70;5.88;;;;;;;0.02;89.25;96875.06;5047014;28;20037;-59
2021/12/11 06:58:31;;;;;;;8.75;5.47;;;;;;;0.06;89.90;96888.78;5051071;28;20399;-56
2021/12/11 07:00:59;;;;;;;13.13;7.05;;;;;;;0.01;89.87;96889.41;5046109;28;20091;-58
2021/12/11 07:03:26;;;;;;;11.95;6.82;;;;;;;-0.04;90.07;96899.81;5048947;28;20711;-59
2021/12/11 07:05:54;;;;;;;9.80;6.50;;;;;;;-0.01;89.97;96899.41;5046987;28;20029;-59
2021/12/11 07:08:28;;;;;;;12.43;6.82;;;;;;;0.02;90.86;96903.50;5046811;28;20464;-59
2021/12/11 07:10:57;;;;;;;13.13;8.70;;;;;;;0.07;90.17;96914.44;5046700;28;20037;-57
2021/12/11 07:13:24;;;;;;;12.40;7.35;;;;;;;-0.01;90.37;96921.53;5047268;28;20705;-57
2021/12/11 07:15:52;;;;;;;13.07;7.38;;;;;;;0.08;90.62;96937.34;5046845;28;20033;-58
2021/12/11 07:18:19;;;;;;;11.43;7.28;;;;;;;0.03;89.99;96939.78;5046781;28;20551;-59
2021/12/11 07:20:46;;;;;;;13.20;8.20;;;;;;;-0.05;90.74;96940.75;5046003;28;20048;-58
2021/12/11 07:23:12;;;;;;;12.73;8.13;;;;;;;0.02;90.54;96943.44;5044881;28;20049;-59
2021/12/11 07:26:05;;;;;;;16.27;8.63;;;;;;;0.08;90.93;96956.00;5046347;28;20044;-59
2021/12/11 07:28:32;;;;;;;11.95;8.55;;;;;;;-0.01;89.74;96960.63;5046878;28;20044;-58
2021/12/11 07:30:59;;;;;;;15.45;8.43;;;;;;;0.01;90.29;96965.75;5035114;28;20044;-59
2021/12/11 07:33:27;;;;;;;15.45;8.02;;;;;;;0.03;89.01;96966.41;5052673;28;20041;-59
2021/12/11 07:35:56;;;;;;;13.18;8.07;;;;;;;-0.01;89.81;96972.13;5046755;28;20044;-57
2021/12/11 07:38:23;;;;;;;13.35;8.35;;;;;;;-0.07;89.12;96988.03;5046446;28;20073;-59
2021/12/11 07:40:53;;;;;;;15.30;9.70;;;;;;;-0.04;89.77;96995.66;5043544;28;20103;-55
2021/12/11 07:43:22;;;;;;;19.63;12.20;;;;;;;-0.11;90.00;97000.09;5046187;28;20052;-59
2021/12/11 07:45:49;;;;;;;18.88;12.50;;;;;;;-0.05;90.27;97012.59;5051686;28;20474;-59
2021/12/11 07:48:16;;;;;;;20.38;11.45;;;;;;;-0.05;90.31;97020.59;5043223;28;20048;-59
2021/12/11 07:50:44;;;;;;;20.10;11.57;;;;;;;-0.10;90.07;97026.50;5043381;28;20056;-58
2021/12/11 07:53:11;;;;;;;18.50;11.60;;;;;;;-0.04;90.03;97031.06;5048323;28;20041;-57
2021/12/11 07:55:39;;;;;;;17.17;10.48;;;;;;;0.01;89.91;97038.47;5043921;28;20045;-59
2021/12/11 07:58:07;;;;;;;18.70;9.77;;;;;;;0.02;89.85;97047.25;5044005;28;20045;-59
2021/12/11 08:00:37;;;;;;;20.00;11.05;;;;;;;-0.01;90.03;97051.13;5043326;28;20642;-59
2021/12/11 08:03:06;;;;;;;15.55;9.48;;;;;;;0.03;90.30;97047.06;5039667;28;20048;-57
2021/12/11 08:05:33;;;;;;;20.63;10.18;;;;;;;0.07;90.51;97058.19;5039584;28;20037;-59
2021/12/11 08:08:02;;;;;;;14.00;8.68;;;;;;;0.11;89.64;97062.91;5039348;28;20044;-49
2021/12/11 08:10:30;;;;;;;15.27;10.18;;;;;;;0.11;89.42;97065.56;5040255;28;20062;-48
2021/12/11 08:12:58;;;;;;;14.60;10.07;;;;;;;0.19;88.92;97075.25;5041765;28;20730;-49
2021/12/11 08:15:25;;;;;;;15.38;9.40;;;;;;;0.21;88.94;97083.06;5043630;28;20063;-48
2021/12/11 08:17:59;;;;;;;13.77;8.23;;;;;;;0.36;88.14;97083.78;5041819;28;20080;-51
2021/12/11 08:20:29;;;;;;;15.40;9.40;;;;;;;0.37;88.41;97093.44;5036825;28;20053;-49
2021/12/11 08:22:57;;;;;;;15.63;9.52;;;;;;;0.30;88.41;97097.06;5045537;28;20052;-49
2021/12/11 08:25:26;;;;;;;14.93;9.50;;;;;;;0.27;89.06;97094.78;5042912;28;20049;-57
2021/12/11 08:27:55;;;;;;;10.23;6.97;;;;;;;0.33;88.53;97102.81;5043064;28;20052;-59
2021/12/11 08:30:24;;;;;;;14.75;8.02;;;;;;;0.23;88.45;97107.66;5041073;28;20558;-58
2021/12/11 08:32:51;;;;;;;11.32;7.00;;;;;;;0.27;88.33;97116.91;5042837;28;20114;-56
2021/12/11 08:35:18;;;;;;;12.45;7.85;;;;;;;0.31;88.56;97114.69;5036057;28;20041;-56
2021/12/11 08:37:49;;;;;;;9.88;6.28;;;;;;;0.40;88.39;97123.38;5037157;28;20056;-57
2021/12/11 08:40:20;;;;;;;12.02;7.07;;;;;;;0.38;88.57;97126.22;5037924;28;20072;-59
2021/12/11 08:42:47;;;;;;;11.68;7.68;;;;;;;0.34;88.50;97133.75;5042113;28;20032;-58
2021/12/11 08:45:22;;;;;;;17.25;10.25;;;;;;;0.40;89.23;97136.69;5045014;28;20469;-58
2021/12/11 08:47:52;;;;;;;12.18;8.00;;;;;;;0.36;88.81;97142.41;5042933;28;20699;-55
2021/12/11 08:50:22;;;;;;;13.43;7.45;;;;;;;0.37;89.02;97152.03;5039999;28;20049;-58
2021/12/11 08:52:52;;;;;;;14.77;9.77;;;;;;;0.37;88.75;97159.22;5031493;28;20095;-57
2021/12/11 08:55:28;;;;;;;17.80;9.73;;;;;;;0.31;89.08;97159.97;5033825;28;20054;-58
2021/12/11 08:57:56;;;;;;;14.63;8.68;;;;;;;0.42;88.84;97167.44;5043803;28;20098;-58
2021/12/11 09:00:28;;;;;;;12.80;8.45;;;;;;;0.41;88.69;97172.97;5042853;28;20045;-58
2021/12/11 09:03:14;;;;;;;14.15;8.75;;;;;;;0.50;88.65;97180.63;5044745;28;20044;-59
2021/12/11 09:05:52;;;;;;;13.45;7.72;;;;;;;0.48;88.49;97185.31;5033499;28;20037;-58
2021/12/11 09:08:27;;;;;;;12.13;8.05;;;;;;;0.56;88.24;97194.19;5043271;28;20685;-57
2021/12/11 09:11:07;;;;;;;11.48;6.53;;;;;;;0.64;87.44;97186.91;5044871;28;20040;-59
2021/12/11 09:13:53;;;;;;;12.13;7.43;;;;;;;0.81;87.24;97193.78;5032389;28;20088;-58
2021/12/11 09:16:34;;;;;;;12.13;6.93;;;;;;;0.78;87.37;97209.13;5042979;28;20051;-59
2021/12/11 09:19:08;;;;;;;12.95;9.20;;;;;;;0.73;87.33;97200.06;5027773;28;20111;-58
2021/12/11 09:21:42;;;;;;;9.98;6.65;;;;;;;0.69;86.72;97210.28;5030869;28;20049;-59
2021/12/11 09:24:34;;;;;;;11.30;6.57;;;;;;;0.74;87.45;97213.19;5040578;28;20052;-59
2021/12/11 09:27:13;;;;;;;14.30;8.65;;;;;;;0.98;87.42;97210.28;5040679;28;20547;-58
2021/12/11 09:29:46;;;;;;;12.70;6.78;;;;;;;0.90;86.61;97213.94;5042020;28;20083;-59
2021/12/11 09:32:20;;;;;;;10.80;7.13;;;;;;;0.95;86.76;97219.50;5038315;28;20087;-59
2021/12/11 09:34:52;;;;;;;8.90;5.05;;;;;;;0.96;85.86;97225.69;5041951;28;20083;-60
2021/12/11 09:37:19;;;;;;;8.77;5.85;;;;;;;1.11;85.56;97231.72;5041065;28;20045;-58
2021/12/11 09:39:56;;;;;;;10.82;7.10;;;;;;;1.22;85.07;97237.56;5039896;28;20062;-57
2021/12/11 09:42:22;;;;;;;10.57;5.38;;;;;;;1.13;85.38;97242.19;5039015;28;20504;-61
2021/12/11 09:44:54;;;;;;;13.90;7.82;;;;;;;1.10;85.64;97243.41;5039878;28;20060;-57
2021/12/11 09:47:31;;;;;;;8.75;5.57;;;;;;;1.17;84.66;97248.78;5044290;28;20037;-60
2021/12/11 09:50:08;;;;;;;10.13;5.88;;;;;;;1.13;85.93;97251.03;5044829;28;20123;-59
2021/12/11 09:52:41;;;;;;;9.50;5.63;;;;;;;1.11;84.95;97255.72;5041305;28;20045;-59
2021/12/11 09:55:18;;;;;;;9.77;5.80;;;;;;;1.09;85.07;97265.78;5039090;28;20044;-59
2021/12/11 09:57:49;;;;;;;10.23;5.60;;;;;;;1.14;84.52;97265.19;5032005;28;20048;-61
2021/12/11 10:00:30;;;;;;;8.88;5.53;;;;;;;1.24;85.06;97267.50;5044957;28;20527;-61
2021/12/11 10:02:58;;;;;;;7.53;4.72;;;;;;;1.24;84.94;97268.34;5035570;28;20053;-59
2021/12/11 10:05:36;;;;;;;9.98;5.50;;;;;;;1.36;84.24;97268.63;5044905;28;20099;-64
2021/12/11 10:11:05;;;;;;;13.40;6.90;;;;;;;1.25;86.08;97282.50;5039659;28;20041;-59
2021/12/11 10:13:35;;;;;;;10.75;5.72;;;;;;;1.29;85.05;97286.44;5044576;28;20479;-59
2021/12/11 10:16:02;;;;;;;10.90;6.22;;;;;;;1.30;84.54;97286.22;5044803;28;20041;-59
2021/12/11 10:18:32;;;;;;;9.27;6.05;;;;;;;1.35;84.24;97288.31;5044495;28;20045;-59
2021/12/11 10:21:05;;;;;;;10.75;6.03;;;;;;;1.26;85.29;97292.97;5041851;28;20044;-62
2021/12/11 10:23:35;;;;;;;10.10;6.32;;;;;;;1.26;84.70;97292.97;5042942;28;20053;-60
2021/12/11 10:26:10;;;;;;;10.10;5.65;;;;;;;1.36;84.29;97291.81;5046749;28;20075;-60
2021/12/11 10:28:43;;;;;;;10.48;7.55;;;;;;;1.25;84.81;97303.84;5040343;28;20507;-63
2021/12/11 10:31:17;;;;;;;11.07;6.43;;;;;;;1.27;84.98;97304.47;5047945;28;20047;-64
2021/12/11 10:33:45;;;;;;;8.60;5.40;;;;;;;1.34;84.98;97313.34;5043283;28;20044;-59
2021/12/11 10:36:25;;;;;;;10.07;5.95;;;;;;;1.35;84.00;97315.00;5039371;28;20143;-60
2021/12/11 10:38:52;;;;;;;9.85;5.90;;;;;;;1.47;84.08;97309.94;5048198;28;20571;-65
2021/12/11 10:41:25;;;;;;;9.90;6.22;;;;;;;1.61;83.56;97318.03;5047506;28;20041;-63
2021/12/11 10:44:00;;;;;;;8.43;6.20;;;;;;;1.52;83.01;97314.72;5048924;28;20049;-69
2021/12/11 10:46:45;;;;;;;10.23;6.30;;;;;;;1.46;83.39;97316.31;5038559;28;20037;-70
2021/12/11 10:49:16;;;;;;;7.15;4.45;;;;;;;1.55;82.33;97319.66;5039426;28;20118;-61
2021/12/11 10:52:05;;;;;;;14.70;9.00;;;;;;;1.42;84.03;97331.88;5035153;28;20567;-62
2021/12/11 10:54:32;;;;;;;10.18;5.55;;;;;;;1.33;83.38;97330.38;5042246;28;20136;-62
2021/12/11 10:56:59;;;;;;;9.07;5.35;;;;;;;1.51;83.46;97334.41;5040044;28;20100;-66
2021/12/11 10:59:30;;;;;;;10.50;7.10;;;;;;;1.59;82.38;97328.94;5031961;28;20100;-68
2021/12/11 11:02:12;;;;;;;10.40;6.18;;;;;;;1.40;84.37;97333.09;5039822;28;20491;-67
2021/12/11 11:04:43;;;;;;;10.20;6.22;;;;;;;1.49;83.21;97336.44;5026316;28;20045;-70
2021/12/11 11:07:11;;;;;;;13.90;8.45;;;;;;;1.50;82.98;97333.56;5030641;28;20045;-68
2021/12/11 11:09:39;;;;;;;12.23;7.47;;;;;;;1.36;83.94;97339.84;5038952;28;20040;-68
2021/12/11 11:12:10;;;;;;;8.98;5.82;;;;;;;1.49;83.24;97344.44;5039565;28;20079;-70
2021/12/11 11:14:39;;;;;;;6.55;4.50;;;;;;;1.48;81.93;97345.47;5042930;28;20548;-66
2021/12/11 11:17:10;;;;;;;8.88;4.63;;;;;;;1.47;82.09;97355.31;5046371;28;20045;-67
2021/12/11 11:19:40;;;;;;;9.43;6.00;;;;;;;1.57;82.11;97357.63;5041271;28;20688;-68
2021/12/11 11:22:17;;;;;;;10.93;7.00;;;;;;;1.49;82.72;97355.13;5045555;28;20044;-67
2021/12/11 11:24:49;;;;;;;10.13;6.45;;;;;;;1.44;83.56;97353.03;5031552;28;20107;-68
2021/12/11 11:27:17;;;;;;;8.48;4.97;;;;;;;1.40;83.67;97362.44;5037694;28;20060;-68
2021/12/11 11:29:44;;;;;;;11.85;6.97;;;;;;;1.49;82.94;97365.78;5039783;28;20060;-67
2021/12/11 11:32:16;;;;;;;10.95;5.38;;;;;;;1.46;82.53;97364.34;5047330;28;20049;-69
2021/12/11 11:34:44;;;;;;;8.90;6.15;;;;;;;1.48;82.74;97367.66;5043124;28;20361;-67
2021/12/11 11:37:15;;;;;;;11.20;7.10;;;;;;;1.62;83.04;97368.56;5043397;28;20033;-66
2021/12/11 11:39:43;;;;;;;8.57;5.88;;;;;;;1.68;82.18;97378.47;5032915;28;20047;-67
2021/12/11 11:42:16;;;;;;;9.10;6.22;;;;;;;1.94;80.61;97377.00;5031299;28;20049;-66
2021/12/11 11:44:45;;;;;;;9.30;6.00;;;;;;;1.84;81.69;97397.84;5046222;28;20041;-68
2021/12/11 11:47:15;;;;;;;14.07;8.10;;;;;;;1.79;81.35;97395.78;5047726;28;20041;-67
2021/12/11 11:49:42;;;;;;;12.35;7.00;;;;;;;1.66;81.11;97395.69;5035453;28;20070;-66
2021/12/11 11:52:16;;;;;;;10.13;6.22;;;;;;;1.74;80.89;97400.06;5038714;28;20044;-67
2021/12/11 11:54:46;;;;;;;13.43;8.02;;;;;;;1.67;81.04;97400.00;5046288;28;20153;-67
2021/12/11 11:57:19;;;;;;;9.57;6.10;;;;;;;1.80;81.55;97404.59;5036152;28;20041;-66
2021/12/11 11:59:50;;;;;;;8.60;5.40;;;;;;;1.78;80.14;97409.31;5044098;28;20044;-61
2021/12/11 12:02:19;;;;;;;9.85;4.88;;;;;;;1.67;80.57;97419.50;5045990;28;20057;-60
2021/12/11 12:04:49;;;;;;;11.90;5.95;;;;;;;1.82;81.48;97421.28;5035882;28;20051;-60
2021/12/11 12:07:18;;;;;;;7.95;4.88;;;;;;;1.74;79.83;97414.25;5026775;28;20045;-61
2021/12/11 12:09:48;;;;;;;9.80;6.32;;;;;;;1.85;80.57;97433.41;5037677;28;20240;-60
2021/12/11 12:12:16;;;;;;;9.75;5.63;;;;;;;1.86;81.16;97425.22;5040262;28;20470;-60